Tropical Cyclones
[Index]
Main Index Home Page Stock Weather Photos Extreme Storms Discussion Storm News and Storm Chasing Reports Tropical Cyclones / Hurricanes / Typhoons Weather Data and Links Wild Fires / Bushfires Weather Observation Techniques Weather Picture Catalogue Tornado Pictures and Reports Stock Video Footage and DVDs for sale
Season 2011-2012 Tropical Cyclone IGGY Track Map
Season 2011-2012 Summaries: [BoM-AU] [JTWC-AU] [JTWC-SIO] [JTWC-SPAC] [JTWC-SH]
<<- Previous TC | BoM 2011-2012 Season | Next TC ->>

click for intensity scale information  Lat/long Grid: Show Hide

 Date Labels: Show Hide

Bureau of Meteorology Tropical Cyclone Data

Name: IGGY
Number: 956 / 201112_11

23 Jan 2012 00:00 UTC to 03 Feb 2012 00:00 UTC

    date/time    lat    long    hPa   cat  kts
2012-01-23 00   12.7   116.8                            
2012-01-23 12   15.0   116.0   1002         25          
2012-01-23 13   15.5   116.5                            
2012-01-23 18   15.2   114.5   1001         25          
2012-01-23 21   16.0   114.8                            
2012-01-24 00   15.3   113.0   1001         25          
2012-01-24 03   16.0   113.3    998         25          
2012-01-24 06   15.5   112.0    998         30          
2012-01-24 09   16.0   112.0                30          
2012-01-24 12   15.6   111.0    998         30          
2012-01-24 15   16.0   110.3                            
2012-01-24 18   15.8   110.2    997         30          
2012-01-24 21   16.0   109.6                30          
2012-01-24 22   15.8   109.7                            
2012-01-25 00   15.8   109.4    993    1    30          
2012-01-25 03   15.8   108.8                            
2012-01-25 06   15.8   108.3    990    1    35          
2012-01-25 09   15.8   108.2    994    1    30          
2012-01-25 12   15.8   108.4    988    1    35          
2012-01-25 13   15.9   108.4                            
2012-01-25 15   15.9   108.1    994    1    30          
2012-01-25 18   16.0   108.5    985    2    40          
2012-01-25 21   16.1   108.4    986    1    40          
2012-01-25 22   16.1   108.5                            
2012-01-26 00   16.2   108.6    978    2    50          
2012-01-26 06   16.6   108.9    978    2    50          
2012-01-26 10   17.0   109.3                            
2012-01-26 12   17.1   109.4    976    2    50          
2012-01-26 13   17.1   109.4                            
2012-01-26 14   17.0   109.5    981    2    45          
2012-01-26 18   17.6   109.7    975    2    50          
2012-01-26 19   17.3   109.8    981    2    45          
2012-01-26 21   17.5   110.0    979    2    50          
2012-01-26 22   18.1   109.9                            
2012-01-27 00   18.2   110.0    980    2    50          
2012-01-27 03   18.2   110.2    979    2    50          
2012-01-27 06   18.7   110.5    979    2    50          
2012-01-27 08   18.7   110.7                            
2012-01-27 09   18.7   110.8    977    2    50          
2012-01-27 10   19.1   110.8                            
2012-01-27 12   19.1   110.8    978    2    50          
2012-01-27 15   19.4   110.9    977    2    50          
2012-01-27 16   19.5   110.7                            
2012-01-27 18   19.5   110.6    979    2    50          
2012-01-27 21   19.7   110.7    977    2    50          
2012-01-27 22   19.6   110.5                            
2012-01-28 00   19.7   110.7    977    2    55          
2012-01-28 03   19.9   110.7    975    2    50          
2012-01-28 06   19.9   110.7    976    2    55          
2012-01-28 07   19.9   110.7                            
2012-01-28 09   20.0   110.7    975    2    50          
2012-01-28 10   20.1   110.8                            
2012-01-28 12   20.0   110.9    974    2    55          
2012-01-28 15   20.0   110.9    970    3    55          
2012-01-28 15   20.0   111.0                            
2012-01-28 18   19.9   111.1    975    2    55          
2012-01-28 21   20.0   111.3    970    3    55          
2012-01-28 21   19.9   111.3                            
2012-01-29 00   19.8   111.2    977    2    55          
2012-01-29 03   20.0   111.3    970    3    55          
2012-01-29 06   19.8   111.2    976    2    50          
2012-01-29 09   20.0   111.4    975    2    50          
2012-01-29 10   19.8   111.2                            
2012-01-29 12   19.8   111.1    975    2    50          
2012-01-29 14   19.8   111.0                            
2012-01-29 15   19.8   111.2    977    2    45          
2012-01-29 18   19.8   111.0    979    2    50          
2012-01-29 21   19.8   110.9    977    2    45          
2012-01-29 21   19.8   110.9                            
2012-01-29 22   19.8   110.7                            
2012-01-30 00   19.9   110.7    983    2    50          
2012-01-30 03   20.0   110.5    980    2    45          
2012-01-30 06   20.2   110.6    983    2    50          
2012-01-30 07   20.2   110.6                            
2012-01-30 09   20.2   110.3    978    2    45          
2012-01-30 12   20.7   110.2    990    1    50          
2012-01-30 15   20.7   110.0    974    2    55          
2012-01-30 18   21.3   109.8    990    1    45          
2012-01-30 20   21.5   109.6                            
2012-01-30 21   21.4   109.7    980    2    50          
2012-01-30 22   21.7   109.5                            
2012-01-31 00   21.9   109.4    984    2    45          
2012-01-31 03   22.2   109.0    985    2    45          
2012-01-31 05   22.5   108.7    985    2    45          
2012-01-31 06   22.7   108.9    980    2    50          
2012-01-31 09   23.2   108.4    985    2    45          
2012-01-31 09   23.3   108.4                            
2012-01-31 12   23.9   108.2    977    2    60          
2012-01-31 13   24.1   108.1                            
2012-01-31 18   24.9   107.7    976    2    60          
2012-01-31 22   25.8   107.8                            
2012-02-01 00   26.2   107.8    978    2    55          
2012-02-01 06   27.5   107.9    981    2    50          
2012-02-01 08   27.8   107.9                            
2012-02-01 12   28.5   108.5    985    2    45          
2012-02-01 13   28.6   108.7    986    1    45          
2012-02-01 13   28.6   108.7                            
2012-02-01 18   29.1   109.4    988    1    40          
2012-02-01 20   29.4   109.7                            
2012-02-01 21   29.8   110.3                            
2012-02-01 22   29.8   110.3                            
2012-02-02 00   29.8   110.8    989    1    35          
2012-02-02 06   29.8   111.9    991    1    30          
2012-02-02 09   29.8   112.7                            
2012-02-02 12   29.9   113.2    995    1    25          
2012-02-02 13   30.0   113.4                            
2012-02-02 18   29.8   114.1    994    1    25          
2012-02-03 00   29.5   115.0    997         20          
Winds are 10-min average.

Tropical cyclone tracks developed by Michael Bath using data from the Bureau of Meteorology and Google Maps.


[Australian Severe Weather index] [Copyright Notice] [Email Contacts] [Search This Site] [Privacy Policy]
Document: tropical_cyclone_iggy.htm Updated: 29 June 2017